Latest Coastal Weather Observations for Hervey Bay

IDQ60701

Issued at 12:15 am EST Friday 25 April 2014 (issued every 10 minutes, with the page automatically refreshed every 10 minutes)

About coastal observations | Map of coastal stations | Coastal observations for QLD | Marine services | Other Formats
Station Details ID: 040405 Name: HERVEY BAY AIRPORT Lat: -25.32 Lon: 152.88 Height: 12.98 m
Data from the previous 72 hours. | See also: Recent months at Hervey Bay
Date/Time
EST
Temp

°C
Wind Pressure Rain
since 9am
mm
Weather Cloud Vis
km
Sea
Height
m
Swell
Dir
 
Speed
knots
Gust
knots
hPa Trend Height
m
Period
s
Dir
25/12:00am 18.6 SW 4 5 1015.9 - 0.0 - - 10 - - - -
 
Date/Time
EST
Temp

°C
Wind Pressure Rain
since 9am
mm
Weather Cloud Vis
km
Sea
Height
m
Swell
Dir
 
Speed
knots
Gust
knots
hPa Trend Height
m
Period
s
Dir
24/11:30pm 17.6 SSW 4 5 1015.9 - 0.0 - - 10 - - - -
24/11:00pm 17.6 CALM 0 0 1016.1 - 0.0 - - 10 - - - -
24/10:30pm 18.1 CALM 0 0 1016.2 - 0.0 - - 10 - - - -
24/10:00pm 18.3 CALM 0 0 1016.2 - 0.0 - - 10 - - - -
24/09:30pm 18.7 CALM 0 0 1016.4 - 0.0 - - 10 - - - -
24/09:00pm 19.2 CALM 0 0 1016.2 - 0.0 - - 10 - - - -
24/08:30pm 20.1 SE 4 5 1016.2 - 0.0 - - 10 - - - -
24/08:00pm 21.9 SSE 4 6 1015.9 - 0.0 - - 10 - - - -
24/07:30pm 22.5 SE 4 6 1015.5 - 0.0 - - 10 - - - -
24/07:00pm 22.7 SE 5 7 1015.3 - 0.0 - - 10 - - - -
24/06:30pm 23.1 ESE 6 9 1015.2 - 0.0 - - 10 - - - -
24/06:00pm 23.4 SE 6 10 1014.8 - 0.0 - - 10 - - - -
24/05:30pm 23.8 ESE 9 12 1014.4 - 0.0 - - 10 - - - -
24/05:00pm 24.5 ESE 9 13 1014.3 - 0.0 - - 10 - - - -
24/04:30pm 25.4 ESE 8 12 1014.0 - 0.0 - - 10 - - - -
24/04:00pm 25.5 ESE 11 15 1013.7 - 0.0 - - 10 - - - -
24/03:30pm 26.4 ESE 10 13 1013.6 - 0.0 - - 10 - - - -
24/03:00pm 26.7 ESE 11 16 1013.3 - 0.0 - - 10 - - - -
24/02:30pm 27.0 ESE 8 14 1013.4 - 0.0 - Partly cloudy 10 - - - -
24/02:00pm 26.7 SE 8 12 1013.5 - 0.0 - Partly cloudy 10 - - - -
24/01:30pm 27.1 SE 7 12 1013.7 - 0.0 - Partly cloudy 10 - - - -
24/01:00pm 27.5 SE 8 13 1014.2 - 0.0 - Partly cloudy 10 - - - -
24/12:30pm 26.7 SSE 7 13 1014.7 - 0.0 - Partly cloudy 10 - - - -
24/12:00pm 26.3 SE 10 13 1015.1 - 0.0 - Partly cloudy 10 - - - -
24/11:30am 25.5 S 6 8 1016.0 - 0.0 - - 10 - - - -
24/11:00am 24.8 S 6 9 1016.4 - 0.0 - Partly cloudy 10 - - - -
24/10:30am 23.7 SSW 6 8 1016.9 - 0.0 - Partly cloudy 10 - - - -
24/10:00am 22.4 SSW 7 9 1017.2 - 0.0 - Cloudy 10 - - - -
24/09:30am 22.1 SW 5 7 1017.2 - 0.0 - Partly cloudy 10 - - - -
24/09:00am 21.8 S 4 6 1016.8 - 0.0 - - 10 - - - -
24/08:30am 19.9 SSW 7 9 1016.7 - 0.0 - - 10 - - - -
24/08:00am 18.7 SSW 6 8 1016.3 - 0.0 - - 10 - - - -
24/07:30am 18.7 SSW 6 8 1016.5 - 0.0 - - 10 - - - -
24/07:00am 18.3 SW 4 6 1016.2 - 0.0 - - 10 - - - -
24/06:30am 18.0 SW 3 5 1016.0 - 0.0 - - 10 - - - -
24/06:00am 17.9 SW 5 6 1015.6 - 0.0 - - 10 - - - -
24/05:30am 17.7 SSW 4 5 1015.4 - 0.0 - - 10 - - - -
24/05:00am 17.7 SW 4 5 1015.1 - 0.0 - - 10 - - - -
24/04:30am 17.9 SSW 5 6 1014.5 - 0.0 - - 10 - - - -
24/04:00am 18.1 SSW 4 5 1014.7 - 0.0 - - 10 - - - -
24/03:30am 18.4 SW 4 6 1015.0 - 0.0 - - 10 - - - -
24/03:00am 18.6 SSW 6 8 1014.8 - 0.0 - - 10 - - - -
24/02:30am 18.8 SSW 5 7 1015.3 - 0.0 - - 10 - - - -
24/02:00am 18.7 SW 3 5 1015.7 - 0.0 - - 10 - - - -
24/01:30am 18.9 SW 6 7 1016.0 - 0.0 - - 10 - - - -
24/01:00am 19.1 SSW 5 7 1016.2 - 0.0 - Partly cloudy 10 - - - -
24/12:30am 19.1 SSW 6 8 1016.5 - 0.0 - Partly cloudy 10 - - - -
24/12:00am 19.0 SW 5 7 1016.7 - 0.0 - Mostly clear 10 - - - -
 
Date/Time
EST
Temp

°C
Wind Pressure Rain
since 9am
mm
Weather Cloud Vis
km
Sea
Height
m
Swell
Dir
 
Speed
knots
Gust
knots
hPa Trend Height
m
Period
s
Dir
23/11:30pm 18.8 SW 3 4 1017.0 - 0.0 - - 10 - - - -
23/11:00pm 18.6 SW 3 4 1017.2 - 0.0 - - 10 - - - -
23/10:30pm 18.7 CALM 0 0 1017.4 - 0.0 - - 10 - - - -
23/10:00pm 19.0 SSW 2 3 1017.4 - 0.0 - - 10 - - - -
23/09:30pm 19.2 SSW 3 4 1017.6 - 0.0 - - 10 - - - -
23/09:00pm 20.4 S 3 4 1017.5 - 0.0 - - 10 - - - -
23/08:30pm 20.8 SSE 5 6 1017.5 - 0.0 - - 10 - - - -
23/08:00pm 20.3 CALM 0 4 1017.5 - 0.0 - Partly cloudy 10 - - - -
23/07:30pm 21.2 ESE 1 3 1017.3 - 0.0 - - 10 - - - -
23/07:00pm 22.8 ESE 5 6 1017.1 - 0.0 - - 10 - - - -
23/06:30pm 23.3 ESE 5 8 1016.7 - 0.0 - - 10 - - - -
23/06:00pm 23.4 ESE 6 8 1016.0 - 0.0 - - 10 - - - -
23/05:30pm 23.8 ESE 7 9 1016.1 - 0.0 - - 10 - - - -
23/05:00pm 24.4 ESE 10 12 1015.7 - 0.0 - - 10 - - - -
23/04:30pm 25.1 E 7 8 1015.5 - 0.0 - Partly cloudy 10 - - - -
23/04:00pm 25.1 E 7 9 1015.6 - 0.0 - Partly cloudy 10 - - - -
23/03:30pm 25.3 ESE 9 10 1015.2 - 0.0 - Partly cloudy 10 - - - -
23/03:00pm 26.1 ESE 8 11 1015.2 - 0.0 - Mostly cloudy 10 - - - -
23/02:30pm 26.1 ESE 7 9 1015.5 - 0.0 - Cloudy 10 - - - -
23/02:00pm 25.6 ESE 6 9 1015.7 - 0.0 - Partly cloudy 10 - - - -
23/01:30pm 26.2 ESE 6 9 1016.0 - 0.0 - Partly cloudy 10 - - - -
23/01:00pm 26.6 ESE 6 10 1016.3 - 0.0 - Partly cloudy 10 - - - -
23/12:30pm 26.3 ESE 7 9 1016.8 - 0.0 - Partly cloudy 10 - - - -
23/12:00pm 26.1 ENE 6 10 1017.3 - 0.0 - Partly cloudy 10 - - - -
23/11:30am 26.0 E 4 6 1017.7 - 0.0 - - 10 - - - -
23/11:00am 25.5 ESE 3 6 1018.2 - 0.0 - Partly cloudy 10 - - - -
23/10:30am 24.9 S 3 6 1018.5 - 0.0 - Partly cloudy 10 - - - -
23/10:00am 24.2 SE 4 6 1018.3 - 0.0 - - 10 - - - -
23/09:30am 23.6 SE 3 7 1018.6 - 0.0 - - 10 - - - -
23/09:00am 22.6 SSE 3 5 1018.4 - 0.0 - - 10 - - - -
23/08:30am 21.1 SSE 1 4 1018.9 - 0.0 - - 10 - - - -
23/08:00am 19.7 S 4 6 1018.8 - 0.0 - - 10 - - - -
23/07:30am 18.7 SSW 5 6 1018.3 - 0.0 - - 10 - - - -
23/07:00am 18.6 SW 4 5 1018.4 - 0.0 - - 10 - - - -
23/06:30am 18.0 SSW 5 5 1018.4 - 0.0 - - 10 - - - -
23/06:00am 18.1 SSW 4 5 1018.3 - 0.0 - - 10 - - - -
23/05:30am 18.0 SW 1 4 1018.4 - 0.0 - - 10 - - - -
23/05:00am 18.2 SSW 4 5 1017.9 - 0.0 - - 10 - - - -
23/04:30am 18.3 SSW 5 7 1018.0 - 0.0 - Partly cloudy 10 - - - -
23/04:00am 18.3 SSW 4 6 1017.6 - 0.0 - Partly cloudy 10 - - - -
23/03:30am 18.1 WSW 3 4 1017.8 - 0.0 - Partly cloudy 10 - - - -
23/03:00am 18.3 SW 3 4 1017.9 - 0.0 - - 10 - - - -
23/02:30am 18.6 SW 4 6 1017.9 - 0.0 - Partly cloudy 10 - - - -
23/02:00am 18.2 SSW 4 6 1018.1 - 0.0 - - 10 - - - -
23/01:30am 18.1 CALM 0 0 1018.2 - 0.0 - Partly cloudy 10 - - - -
23/01:00am 18.2 CALM 0 0 1018.5 - 0.0 - - 10 - - - -
23/12:30am 18.4 SW 1 3 1018.7 - 0.0 - - 10 - - - -
23/12:00am 18.7 CALM 0 0 1018.7 - 0.0 - Mostly clear 10 - - - -
 
Date/Time
EST
Temp

°C
Wind Pressure Rain
since 9am
mm
Weather Cloud Vis
km
Sea
Height
m
Swell
Dir
 
Speed
knots
Gust
knots
hPa Trend Height
m
Period
s
Dir
22/11:30pm 18.9 CALM 0 0 1018.8 - 0.0 - - 10 - - - -
22/11:00pm 19.3 CALM 0 0 1019.3 - 0.0 - Partly cloudy 10 - - - -
22/10:30pm 19.9 CALM 0 0 1019.4 - 0.0 - Partly cloudy 10 - - - -
22/10:00pm 20.1 CALM 0 0 1019.4 - 0.0 - Partly cloudy 10 - - - -
22/09:30pm 20.2 E 3 4 1019.5 - 0.0 - Partly cloudy 10 - - - -
22/09:00pm 21.4 E 4 5 1019.6 - 0.0 - Mostly clear 10 - - - -
22/08:30pm 22.9 ENE 5 7 1019.7 - 0.0 - - 10 - - - -
22/08:00pm 23.2 E 6 7 1019.6 - 0.0 - - 10 - - - -
22/07:30pm 23.6 E 7 9 1019.4 - 0.0 - Partly cloudy 10 - - - -
22/07:00pm 23.3 E 6 7 1019.2 - 0.0 - Partly cloudy 10 - - - -
22/06:30pm 23.5 E 7 9 1018.9 - 0.0 - - 10 - - - -
22/06:00pm 23.8 E 10 13 1018.5 - 0.0 - Mostly clear 10 - - - -
22/05:30pm 23.9 E 8 10 1018.5 - 0.0 - Partly cloudy 10 - - - -
22/05:00pm 24.6 E 9 12 1018.4 - 0.0 - Partly cloudy 10 - - - -
22/04:30pm 25.5 E 10 13 1018.2 - 0.0 - Partly cloudy 10 - - - -
22/04:00pm 26.1 E 10 13 1018.0 - 0.0 - - 10 - - - -
22/03:30pm 26.5 E 10 13 1018.0 - 0.0 - - 10 - - - -
22/03:00pm 27.3 E 9 12 1018.0 - 0.0 - - 10 - - - -
22/02:30pm 27.1 E 8 11 1018.2 - 0.0 - - 10 - - - -
22/02:00pm 27.2 E 8 11 1018.4 - 0.0 - - 10 - - - -
22/01:30pm 26.9 E 7 11 1018.5 - 0.0 - - 10 - - - -
22/01:00pm 27.2 E 6 10 1018.8 - 0.0 - - 10 - - - -
22/12:30pm 27.2 ESE 7 11 1018.9 - 0.0 - - 10 - - - -
22/12:00pm 27.4 NE 3 5 1019.6 - 0.0 - - 10 - - - -
22/11:30am 27.2 S 5 10 1020.0 - 0.0 - - 10 - - - -
22/11:00am 26.9 SE 5 8 1020.4 - 0.0 - - 10 - - - -
22/10:30am 26.3 E 7 10 1020.8 - 0.0 - - 10 - - - -
22/10:00am 25.9 E 6 9 1021.0 - 0.0 - - 10 - - - -
22/09:30am 25.2 E 6 9 1021.0 - 0.0 - - 10 - - - -
22/09:00am 23.5 SW 4 5 1021.3 - 0.0 - - 10 - - - -
22/08:30am 21.6 SSW 6 6 1021.4 - 0.0 - - 10 - - - -
22/08:00am 19.9 SSW 6 8 1021.3 - 0.0 - - 10 - - - -
22/07:30am 18.4 SSW 6 7 1021.0 - 0.0 - - 10 - - - -
22/07:00am 16.9 SSW 5 7 1020.6 - 0.0 - - 10 - - - -
22/06:30am 15.5 SSW 4 6 1020.8 - 0.0 - - 10 - - - -
22/06:00am 14.8 SSW 4 5 1020.4 - 0.0 - - 10 - - - -
22/05:30am 14.5 SSW 3 4 1020.1 - 0.0 - - 10 - - - -
22/05:00am 14.5 SW 1 3 1019.9 - 0.0 - - 10 - - - -
22/04:30am 14.2 SSW 3 3 1019.8 - 0.0 - - 10 - - - -
22/04:00am 14.2 CALM 0 0 1019.6 - 0.0 - - 10 - - - -
22/03:30am 14.3 SSW 3 5 1019.7 - 0.0 - - 10 - - - -
22/03:00am 14.4 SSW 1 3 1019.5 - 0.0 - - 10 - - - -
22/02:30am 14.5 SSW 3 4 1019.7 - 0.0 - - 10 - - - -
22/02:00am 14.6 SSW 4 5 1019.9 - 0.0 - - 10 - - - -
22/01:30am 14.5 SSE 2 4 1020.1 - 0.0 - - 10 - - - -
22/01:00am 14.9 CALM 0 0 1020.1 - 0.0 - - 10 - - - -
22/12:30am 14.9 CALM 0 0 1020.4 - 0.0 - - 10 - - - -

Other Formats:

Comma delimited format used in spreadsheet applications
http://www.bom.gov.au/fwo/IDQ60701/IDQ60701.95565.axf

JavaScript Object Notation format (JSON) in row-major order
http://www.bom.gov.au/fwo/IDQ60701/IDQ60701.95565.json